Airfield :
LOGIN :

Register | Disclaimer

   EN    FR    IT 

 










Legend :    VFR   Marginal VFR   IFR   Intensive IFR   Very Intensive IFR
Visi :
Ceiling :
>= 8 km
>= 3000ft
5 to 8 km
1000 to 3000 ft
1500m to 5 km
500 to 1000 ft
800 to 1500m
200 to 500 ft
< 800m
< 200 ft
Symbols :   Thunderstorms  Fog  Heavy snow  Heavy precipitations  Wind > 20 kt
SIGMETs :     Misc.  Thunderstorms  Icing  Turbulence  Mountain Waves  Volcanic Ashes






- Airport Elevation : 383 ft
- IATA code : UDJ


UKLU - Uzhhorod

CURRENT METAR :
  • 281530Z 11002MPS 060V150 1300 DZ BR OVC008 04/03 Q1006 R10/290160 NOSIG

EXPIRED METARs :
  • 281500Z 12002MPS 060V160 2700 BR OVC008 04/03 Q1006 R10/290160 NOSIG
  • 281430Z 11003MPS 060V160 2500 -RA BR OVC008 04/03 Q1007 R10/290160 NOSIG
  • 281400Z VRB01MPS 5000 BR OVC010 04/03 Q1007 R10/290160 NOSIG
  • 281330Z 12004MPS 080V170 5000 -RA BR OVC013 03/03 Q1007 R10/290160 NOSIG
  • 281300Z 12004MPS 070V200 5000 -RA BR OVC010 03/03 Q1007 R10/290160 NOSIG

TAF TAF UKLU
Valid from the 28 at 15:00 until the 29 at 00:00 UTC


281402Z 2815/2824 14005MPS 2100 -RA BR OVC010 TX03/2815 TN00/2824



MET'MAP, your aeronautical weather chart ! - Copyright ORBIFLY December 2007 - Disclaimer

ORBIFLY MET'MAP TEAM :

Programming & Development : Alexandra Zaïnal
Concept & original design : Baudouin d'Aumeries
Assistance for programming : Marc-Olivier Méhu
Technical & hardware support : Manuel Goepfert

Contact : metmap@orbifly.com




SOURCES & CREDITS :

   NOAA